Time;durP1;ratioP1;P1;durP2;ratioP2;P2;SDS_P1;SDS_P2;PMS_P1;PMS_P2;Temp;Humidity;BMP_temperature;BMP_pressure;BME280_temperature;BME280_humidity;BME280_pressure;Samples;Min_cycle;Max_cycle;Signal;HPM_P1;HPM_P2
2022/04/21 00:00:06;;;;;;;13.55;8.00;;;6.90;99.90;;;;;;4859876;29;20060;-82
2022/04/21 00:02:32;;;;;;;14.20;8.48;;;6.90;99.90;;;;;;4861343;29;20056;-82
2022/04/21 00:04:59;;;;;;;15.45;8.40;;;6.90;99.90;;;;;;4875911;29;20135;-81
2022/04/21 00:07:25;;;;;;;16.02;9.00;;;6.90;99.90;;;;;;4876327;29;20071;-83
2022/04/21 00:09:51;;;;;;;13.65;8.32;;;6.90;99.90;;;;;;4875628;29;20041;-83
2022/04/21 00:12:17;;;;;;;14.77;9.55;;;6.90;99.90;;;;;;4876956;29;20485;-82
2022/04/21 00:14:43;;;;;;;14.27;9.82;;;6.90;99.90;;;;;;4874935;29;20131;-82
2022/04/21 00:17:09;;;;;;;15.98;9.13;;;6.90;99.90;;;;;;4860767;29;20056;-82
2022/04/21 00:19:35;;;;;;;14.63;9.55;;;6.90;99.90;;;;;;4876028;29;20096;-82
2022/04/21 00:24:45;;;;;;;14.73;9.50;;;6.80;99.90;;;;;;4875980;29;20058;-83
2022/04/21 00:27:11;;;;;;;14.57;9.48;;;6.80;99.90;;;;;;4860717;29;20475;-83
2022/04/21 00:29:38;;;;;;;15.38;9.55;;;7.10;99.90;;;;;;4874591;29;20556;-83
2022/04/21 00:32:04;;;;;;;17.92;10.13;;;7.20;99.90;;;;;;4860815;29;20131;-83
2022/04/21 00:34:32;;;;;;;15.63;10.35;;;6.70;99.90;;;;;;4875920;29;20135;-83
2022/04/21 00:36:57;;;;;;;16.83;10.60;;;6.60;99.90;;;;;;4876184;29;20131;-83
2022/04/21 00:39:23;;;;;;;19.40;10.13;;;6.60;99.90;;;;;;4876574;29;20501;-84
2022/04/21 00:41:48;;;;;;;15.77;10.15;;;6.80;99.90;;;;;;4874916;29;20072;-83
2022/04/21 00:44:14;;;;;;;17.48;10.57;;;7.30;99.90;;;;;;4875553;29;20045;-83
2022/04/21 00:46:41;;;;;;;15.60;10.55;;;6.60;99.90;;;;;;4861003;29;20096;-83
2022/04/21 00:49:08;;;;;;;15.98;10.40;;;6.70;99.90;;;;;;4874978;29;20136;-84
2022/04/21 00:51:35;;;;;;;17.35;9.65;;;7.10;99.90;;;;;;4860940;29;20052;-83
2022/04/21 00:54:01;;;;;;;18.15;10.15;;;6.50;99.90;;;;;;4860117;29;20413;-83
2022/04/21 00:56:26;;;;;;;17.10;10.57;;;7.30;99.90;;;;;;4860057;29;20044;-83
2022/04/21 00:58:53;;;;;;;17.20;10.68;;;7.10;99.90;;;;;;4890558;29;20462;-82
2022/04/21 01:04:04;;;;;;;17.60;11.23;;;6.40;99.90;;;;;;4875249;29;20071;-84
2022/04/21 01:06:30;;;;;;;21.35;11.63;;;6.40;99.90;;;;;;4876078;29;20052;-82
2022/04/21 01:08:56;;;;;;;16.42;10.88;;;6.70;99.90;;;;;;4859452;29;20815;-83
2022/04/21 01:11:22;;;;;;;16.77;11.52;;;6.40;99.90;;;;;;4860980;29;20044;-82
2022/04/21 01:13:48;;;;;;;20.25;11.57;;;6.30;99.90;;;;;;4859667;29;20045;-82
2022/04/21 01:16:14;;;;;;;20.40;12.23;;;6.40;99.90;;;;;;4890590;29;20080;-83
2022/04/21 01:18:41;;;;;;;20.02;11.10;;;6.30;99.90;;;;;;4891389;29;20055;-83
2022/04/21 01:21:07;;;;;;;16.48;11.75;;;6.30;99.90;;;;;;4891007;29;20100;-82
2022/04/21 01:23:32;;;;;;;19.38;12.80;;;6.20;99.90;;;;;;4860139;29;20048;-82
2022/04/21 01:26:01;;;;;;;20.02;12.13;;;6.20;99.90;;;;;;4890465;29;20037;-83
2022/04/21 01:28:27;;;;;;;16.58;11.23;;;6.20;99.90;;;;;;4895039;29;20060;-84
2022/04/21 01:30:55;;;;;;;20.08;12.55;;;6.10;99.90;;;;;;4892649;29;20059;-83
2022/04/21 01:33:20;;;;;;;18.52;12.05;;;6.10;99.90;;;;;;4879469;29;20083;-83
2022/04/21 01:35:46;;;;;;;19.70;11.90;;;6.00;99.90;;;;;;4878447;29;20432;-84
2022/04/21 01:41:11;;;;;;;21.55;12.57;;;6.00;99.90;;;;;;4896497;29;20063;-83
2022/04/21 01:43:40;;;;;;;19.63;12.63;;;6.00;99.90;;;;;;4882539;29;20116;-83
2022/04/21 01:46:06;;;;;;;24.88;12.80;;;5.90;99.90;;;;;;4896239;29;20370;-83
2022/04/21 01:48:32;;;;;;;20.13;12.77;;;5.90;99.90;;;;;;4882537;29;20586;-84
2022/04/21 01:50:58;;;;;;;23.25;13.82;;;6.60;99.90;;;;;;4881161;29;20047;-83
2022/04/21 01:53:24;;;;;;;23.23;12.77;;;5.80;99.90;;;;;;4882081;29;20503;-83
2022/04/21 01:55:49;;;;;;;27.27;14.93;;;5.80;99.90;;;;;;4897277;29;20048;-83
2022/04/21 01:58:15;;;;;;;20.98;13.50;;;5.90;99.90;;;;;;4896943;29;20445;-84
2022/04/21 02:00:41;;;;;;;24.58;14.65;;;5.90;99.90;;;;;;4881294;29;20048;-83
2022/04/21 02:03:07;;;;;;;23.88;13.63;;;5.90;99.90;;;;;;4897194;29;20044;-83
2022/04/21 02:05:33;;;;;;;21.63;13.15;;;5.90;99.90;;;;;;4880523;29;20052;-82
2022/04/21 02:08:00;;;;;;;23.33;14.52;;;5.80;99.90;;;;;;4878614;29;20076;-83
2022/04/21 02:10:26;;;;;;;24.17;13.88;;;5.80;99.90;;;;;;4862801;29;20056;-83
2022/04/21 02:12:52;;;;;;;24.23;14.65;;;5.80;99.90;;;;;;4877706;29;20052;-82
2022/04/21 02:15:17;;;;;;;23.58;14.73;;;5.80;99.90;;;;;;4877753;29;20068;-83
2022/04/21 02:17:44;;;;;;;23.63;13.77;;;5.80;99.90;;;;;;4862698;29;20056;-83
2022/04/21 02:20:14;;;;;;;21.85;14.95;;;5.80;99.90;;;;;;4862383;29;20099;-82
2022/04/21 02:22:40;;;;;;;22.90;14.82;;;5.80;99.90;;;;;;4878205;29;20108;-82
2022/04/21 02:25:08;;;;;;;20.75;14.65;;;5.80;99.90;;;;;;4862615;29;20127;-82
2022/04/21 02:27:36;;;;;;;24.67;15.80;;;5.80;99.90;;;;;;4862213;29;20052;-83
2022/04/21 02:30:03;;;;;;;20.02;14.45;;;5.80;99.90;;;;;;4861826;29;20485;-82
2022/04/21 02:32:29;;;;;;;19.52;14.55;;;5.80;99.90;;;;;;4863334;29;20147;-82
2022/04/21 02:34:54;;;;;;;21.88;14.48;;;5.70;99.90;;;;;;4861587;29;20339;-82
2022/04/21 02:37:21;;;;;;;21.55;12.95;;;5.60;99.90;;;;;;4863070;29;20048;-82
2022/04/21 02:39:49;;;;;;;21.30;14.05;;;5.50;99.90;;;;;;4862191;29;20040;-82
2022/04/21 02:42:15;;;;;;;22.40;13.18;;;5.40;99.90;;;;;;4862345;29;20314;-82
2022/04/21 02:44:41;;;;;;;19.38;13.38;;;5.40;99.90;;;;;;4861524;29;20040;-82
2022/04/21 02:47:08;;;;;;;20.98;13.57;;;5.30;99.90;;;;;;4861567;29;20063;-82
2022/04/21 02:49:35;;;;;;;18.63;13.50;;;5.30;99.90;;;;;;4862577;29;20090;-82
2022/04/21 02:52:07;;;;;;;20.15;13.60;;;5.20;99.90;;;;;;4876849;29;20044;-82
2022/04/21 02:57:20;;;;;;;19.67;13.18;;;5.10;99.90;;;;;;4877558;29;20060;-84
2022/04/21 02:59:51;;;;;;;22.92;13.70;;;5.40;99.90;;;;;;4861119;29;20044;-83
2022/04/21 03:02:18;;;;;;;24.90;14.10;;;5.00;99.90;;;;;;4876858;29;20052;-83
2022/04/21 03:04:44;;;;;;;18.42;12.25;;;5.00;99.90;;;;;;4862136;29;20056;-82
2022/04/21 03:07:10;;;;;;;17.60;11.90;;;5.00;99.90;;;;;;4877833;29;20092;-82
2022/04/21 03:09:36;;;;;;;20.42;12.90;;;5.00;99.90;;;;;;4861577;29;20528;-83
2022/04/21 03:12:03;;;;;;;18.73;12.45;;;5.00;99.90;;;;;;4877653;29;20402;-83
2022/04/21 03:14:32;;;;;;;18.48;12.73;;;5.10;99.90;;;;;;4876637;29;20084;-83
2022/04/21 03:17:05;;;;;;;21.02;12.85;;;5.10;99.90;;;;;;4876391;29;20496;-83
2022/04/21 03:19:31;;;;;;;;;;;5.20;99.90;;;;;;4862710;29;20104;-83
2022/04/21 03:24:41;;;;;;;21.52;11.55;;;5.30;99.90;;;;;;4876971;29;20052;-83
2022/04/21 03:27:07;;;;;;;16.98;9.90;;;5.30;99.90;;;;;;4861262;29;20096;-82
2022/04/21 03:29:37;;;;;;;14.25;9.65;;;5.40;99.90;;;;;;4860597;29;20135;-82
2022/04/21 03:32:11;;;;;;;19.05;10.43;;;5.40;99.90;;;;;;4861543;29;20041;-83
2022/04/21 03:34:44;;;;;;;18.13;10.15;;;5.30;99.90;;;;;;4877295;29;20437;-83
2022/04/21 03:37:11;;;;;;;;;;;6.30;99.90;;;;;;4877002;29;20557;-83
2022/04/21 03:39:37;;;;;;;15.90;10.00;;;5.50;99.90;;;;;;4876815;29;19927;-83
2022/04/21 03:42:05;;;;;;;15.50;9.93;;;5.50;99.90;;;;;;4877013;29;20072;-83
2022/04/21 03:44:31;;;;;;;16.02;10.13;;;5.50;99.90;;;;;;4875406;29;20417;-83
2022/04/21 03:46:58;;;;;;;14.13;9.52;;;5.60;99.90;;;;;;4876931;29;20049;-83
2022/04/21 03:49:28;;;;;;;16.65;9.75;;;5.70;99.90;;;;;;4861712;29;20040;-83
2022/04/21 03:52:00;;;;;;;15.10;9.63;;;5.60;99.90;;;;;;4860599;29;20053;-84
2022/04/21 03:54:26;;;;;;;13.38;9.63;;;5.60;99.90;;;;;;4876634;29;20032;-83
2022/04/21 03:56:54;;;;;;;15.95;10.02;;;5.30;99.90;;;;;;4876503;29;20052;-83
2022/04/21 03:59:20;;;;;;;18.02;10.50;;;5.40;99.90;;;;;;4875425;29;20167;-83
2022/04/21 04:01:47;;;;;;;15.00;9.73;;;5.30;99.90;;;;;;4876269;29;20136;-83
2022/04/21 04:04:13;;;;;;;14.32;9.52;;;6.30;99.90;;;;;;4876544;29;20596;-83
2022/04/21 04:12:12;;;;;;;18.10;10.55;;;5.20;99.90;;;;;;4876209;29;20055;-83
2022/04/21 04:14:38;;;;;;;17.90;9.77;;;5.30;99.90;;;;;;4875865;29;20049;-84
2022/04/21 04:17:06;;;;;;;17.60;10.40;;;5.30;99.90;;;;;;4875927;29;20097;-82
2022/04/21 04:19:33;;;;;;;24.58;10.63;;;5.20;99.90;;;;;;4876119;29;20056;-83
2022/04/21 04:22:00;;;;;;;50.58;11.38;;;5.10;99.90;;;;;;4875640;29;20051;-83
2022/04/21 04:24:26;;;;;;;25.65;10.60;;;5.10;99.90;;;;;;4876692;29;20595;-83
2022/04/21 04:26:52;;;;;;;18.20;10.25;;;5.40;99.90;;;;;;4859664;29;20048;-83
2022/04/21 04:29:22;;;;;;;15.60;9.98;;;5.00;99.90;;;;;;4875789;29;20505;-83
2022/04/21 04:31:53;;;;;;;18.50;10.20;;;5.00;99.90;;;;;;4876035;29;20528;-82
2022/04/21 04:34:20;;;;;;;13.18;8.90;;;4.90;99.90;;;;;;4877650;29;20048;-83
2022/04/21 04:36:46;;;;;;;15.35;10.10;;;4.90;99.90;;;;;;4878965;29;20451;-83
2022/04/21 04:39:13;;;;;;;22.13;10.90;;;4.80;99.90;;;;;;4894736;29;20134;-83
2022/04/21 04:44:23;;;;;;;19.70;10.82;;;5.60;99.90;;;;;;4894024;29;20056;-83
2022/04/21 04:46:49;;;;;;;17.17;9.98;;;4.90;99.90;;;;;;4894143;29;20047;-82
2022/04/21 04:49:14;;;;;;;16.02;9.90;;;5.00;99.90;;;;;;4895219;29;20600;-83
2022/04/21 04:51:49;;;;;;;21.58;10.80;;;4.80;99.90;;;;;;4880290;29;20044;-83
2022/04/21 04:54:16;;;;;;;18.27;10.63;;;4.90;99.90;;;;;;4879060;29;20413;-83
2022/04/21 04:56:44;;;;;;;21.30;10.93;;;5.00;99.90;;;;;;4876314;29;20405;-83
2022/04/21 04:59:09;;;;;;;17.45;11.70;;;5.00;99.90;;;;;;4875375;29;20228;-83
2022/04/21 05:01:41;;;;;;;15.40;11.00;;;5.00;99.90;;;;;;4859835;29;20135;-83
2022/04/21 05:04:09;;;;;;;18.60;11.23;;;5.60;99.90;;;;;;4875671;29;20068;-82
2022/04/21 05:06:37;;;;;;;19.65;11.30;;;5.20;99.90;;;;;;4860574;29;20076;-82
2022/04/21 05:09:04;;;;;;;19.20;11.88;;;5.40;99.90;;;;;;4875293;29;20477;-83
2022/04/21 05:11:29;;;;;;;18.45;11.43;;;5.50;99.90;;;;;;4860438;29;20044;-82
2022/04/21 05:13:55;;;;;;;18.83;10.30;;;5.60;99.90;;;;;;4875235;29;20048;-82
2022/04/21 05:16:21;;;;;;;20.30;11.10;;;6.30;99.90;;;;;;4879056;29;20048;-82
2022/04/21 05:18:48;;;;;;;16.25;10.82;;;6.00;99.90;;;;;;4864467;29;20139;-81
2022/04/21 05:21:14;;;;;;;20.98;10.63;;;5.80;99.90;;;;;;4864767;29;20041;-81
2022/04/21 05:23:42;;;;;;;16.30;11.10;;;5.90;99.90;;;;;;4863340;29;20051;-81
2022/04/21 05:26:08;;;;;;;16.80;11.40;;;5.90;99.90;;;;;;4879464;29;20057;-81
2022/04/21 05:28:34;;;;;;;31.58;11.95;;;6.00;99.90;;;;;;4872808;29;20056;-81
2022/04/21 05:31:01;;;;;;;16.58;11.73;;;6.10;99.90;;;;;;4877835;29;20056;-82
2022/04/21 05:33:28;;;;;;;24.70;12.20;;;6.10;99.90;;;;;;4863806;29;20413;-81
2022/04/21 05:35:55;;;;;;;16.00;10.38;;;6.20;99.90;;;;;;4878519;29;20569;-81
2022/04/21 05:38:22;;;;;;;21.13;11.52;;;6.30;99.90;;;;;;4864069;29;20053;-81
2022/04/21 05:40:49;;;;;;;19.60;10.90;;;6.40;99.90;;;;;;4878711;29;20131;-83
2022/04/21 05:43:19;;;;;;;19.50;11.07;;;6.40;99.90;;;;;;4863517;29;20052;-82
2022/04/21 05:45:45;;;;;;;16.20;10.65;;;6.50;99.90;;;;;;4893681;29;20061;-82
2022/04/21 05:48:13;;;;;;;17.15;10.98;;;6.60;99.90;;;;;;4894860;29;20049;-82
2022/04/21 05:50:41;;;;;;;16.73;10.48;;;6.70;99.90;;;;;;4862785;29;20552;-82
2022/04/21 05:53:10;;;;;;;20.77;10.98;;;6.80;99.90;;;;;;4894524;29;20139;-82
2022/04/21 05:55:36;;;;;;;19.70;11.18;;;6.90;99.90;;;;;;4862939;29;20108;-82
2022/04/21 05:58:02;;;;;;;20.60;11.13;;;7.00;99.90;;;;;;4893731;29;20093;-82
2022/04/21 06:00:27;;;;;;;18.20;10.70;;;7.10;99.90;;;;;;4893953;29;20430;-82
2022/04/21 06:02:53;;;;;;;17.45;10.32;;;7.10;99.90;;;;;;4893824;29;20582;-82
2022/04/21 06:05:18;;;;;;;18.38;10.45;;;7.20;99.90;;;;;;4878133;29;20139;-82
2022/04/21 06:07:44;;;;;;;14.20;9.73;;;7.30;99.90;;;;;;4878624;29;20139;-82
2022/04/21 06:10:10;;;;;;;15.65;8.98;;;7.40;99.90;;;;;;4878613;29;20223;-82
2022/04/21 06:12:36;;;;;;;18.98;9.95;;;7.50;99.90;;;;;;4862826;29;20079;-82
2022/04/21 06:15:03;;;;;;;15.68;9.55;;;7.60;99.90;;;;;;4862139;29;20119;-82
2022/04/21 06:17:28;;;;;;;13.95;9.75;;;7.70;99.90;;;;;;4866161;29;20197;-82
2022/04/21 06:19:55;;;;;;;18.35;10.05;;;7.80;99.90;;;;;;4876945;29;20131;-82
2022/04/21 06:22:21;;;;;;;18.50;9.63;;;8.50;99.90;;;;;;4878804;29;20555;-82
2022/04/21 06:24:46;;;;;;;16.60;9.05;;;7.90;99.90;;;;;;4878481;29;20044;-82
2022/04/21 06:27:12;;;;;;;14.68;8.90;;;8.10;99.90;;;;;;4876835;29;20494;-82
2022/04/21 06:29:38;;;;;;;14.73;9.23;;;8.10;99.90;;;;;;4877778;29;20060;-82
2022/04/21 06:32:04;;;;;;;22.10;8.82;;;8.20;99.90;;;;;;4862557;29;20044;-82
2022/04/21 06:34:29;;;;;;;28.95;10.63;;;8.30;99.90;;;;;;4862198;29;20076;-82
2022/04/21 06:36:55;;;;;;;18.55;8.45;;;8.40;99.90;;;;;;4877992;29;20079;-82
2022/04/21 06:39:20;;;;;;;18.40;8.75;;;8.50;99.90;;;;;;4861856;29;20473;-82
2022/04/21 06:41:46;;;;;;;27.63;8.82;;;8.60;99.90;;;;;;4877783;29;20047;-82
2022/04/21 06:49:40;;;;;;;19.17;8.18;;;9.20;99.90;;;;;;4877932;29;20056;-82
2022/04/21 06:52:06;;;;;;;18.25;6.90;;;9.00;99.90;;;;;;4862543;29;20053;-82
2022/04/21 06:54:31;;;;;;;8.00;5.80;;;9.10;99.90;;;;;;4876763;29;20531;-82
2022/04/21 06:56:57;;;;;;;10.52;5.80;;;9.30;99.90;;;;;;4872309;29;20047;-83
2022/04/21 06:59:23;;;;;;;14.77;5.82;;;9.40;99.90;;;;;;4902672;29;20048;-82
2022/04/21 07:01:51;;;;;;;11.73;5.80;;;9.50;99.90;;;;;;4886394;29;20813;-82
2022/04/21 07:04:17;;;;;;;17.50;5.97;;;10.30;99.90;;;;;;4885600;29;20060;-82
2022/04/21 07:06:43;;;;;;;29.33;6.50;;;10.50;99.90;;;;;;4903229;29;20052;-82
2022/04/21 07:09:09;;;;;;;10.38;5.50;;;10.80;99.90;;;;;;4885602;29;20044;-82
2022/04/21 07:11:34;;;;;;;7.18;5.05;;;10.90;99.90;;;;;;4890487;29;20048;-83
2022/04/21 07:14:00;;;;;;;8.75;4.28;;;10.50;99.90;;;;;;4901743;29;20044;-82
2022/04/21 07:16:26;;;;;;;10.27;4.45;;;10.30;99.90;;;;;;4884698;29;20534;-82
2022/04/21 07:19:02;;;;;;;9.77;4.10;;;10.40;99.90;;;;;;4897764;29;20044;-83
2022/04/21 07:21:32;;;;;;;7.63;4.13;;;10.60;99.90;;;;;;4869376;29;20306;-83
2022/04/21 07:23:59;;;;;;;10.63;3.50;;;11.00;99.90;;;;;;4886569;29;20063;-83
2022/04/21 07:26:24;;;;;;;6.35;3.38;;;10.80;99.90;;;;;;4902008;29;20040;-82
2022/04/21 07:28:50;;;;;;;5.50;3.08;;;11.30;99.90;;;;;;4903494;29;20050;-83
2022/04/21 07:31:16;;;;;;;5.65;3.05;;;11.00;99.90;;;;;;4889806;29;20085;-83
2022/04/21 07:33:41;;;;;;;4.93;2.50;;;11.50;99.90;;;;;;4887722;29;20126;-83
2022/04/21 07:36:07;;;;;;;5.35;2.38;;;12.10;99.90;;;;;;4901798;29;20477;-85
2022/04/21 07:38:34;;;;;;;5.45;2.38;;;11.40;99.90;;;;;;4887984;29;20440;-83
2022/04/21 07:41:00;;;;;;;4.25;1.92;;;12.30;99.90;;;;;;4886148;29;20040;-83
2022/04/21 07:43:26;;;;;;;4.25;2.08;;;11.70;99.90;;;;;;4885605;29;20047;-83
2022/04/21 07:45:52;;;;;;;7.50;2.28;;;11.70;99.90;;;;;;4884065;29;20512;-82
2022/04/21 07:48:18;;;;;;;4.78;2.00;;;11.80;99.90;;;;;;4890258;29;20048;-82
2022/04/21 07:50:45;;;;;;;6.20;2.08;;;11.80;99.90;;;;;;4903452;29;20047;-82
2022/04/21 07:53:18;;;;;;;8.73;2.25;;;12.00;99.90;;;;;;4886498;29;20052;-83
2022/04/21 07:55:46;;;;;;;6.38;2.10;;;12.10;99.90;;;;;;4886097;29;20036;-83
2022/04/21 07:58:13;;;;;;;4.78;1.98;;;12.20;99.90;;;;;;4888142;29;20512;-83
2022/04/21 08:00:40;;;;;;;4.63;1.80;;;12.60;99.90;;;;;;4902424;29;20048;-83
2022/04/21 08:03:07;;;;;;;6.93;2.45;;;12.30;99.90;;;;;;4899816;29;20538;-83
2022/04/21 08:05:36;;;;;;;6.30;2.30;;;12.30;99.90;;;;;;4883298;29;20563;-81
2022/04/21 08:08:03;;;;;;;7.50;2.03;;;12.40;99.90;;;;;;4901552;29;20500;-82
2022/04/21 08:10:29;;;;;;;6.55;2.00;;;12.50;99.90;;;;;;4902293;29;20818;-82
2022/04/21 08:12:58;;;;;;;8.00;2.10;;;12.50;99.90;;;;;;4897817;29;20160;-83
2022/04/21 08:15:28;;;;;;;5.72;2.08;;;12.60;99.90;;;;;;4885476;29;20044;-82
2022/04/21 08:17:56;;;;;;;5.00;2.10;;;12.60;99.90;;;;;;4899205;29;20119;-83
2022/04/21 08:20:23;;;;;;;4.28;2.05;;;12.70;99.90;;;;;;4886578;29;20036;-82
2022/04/21 08:22:49;;;;;;;3.85;2.05;;;12.80;99.90;;;;;;4885512;29;20500;-82
2022/04/21 08:33:28;;;;;;;6.00;3.17;;;12.90;99.90;;;;;;4900513;29;20056;-82
2022/04/21 08:35:59;;;;;;;13.75;2.10;;;13.10;99.90;;;;;;4885150;29;20043;-82
2022/04/21 08:38:27;;;;;;;5.88;2.00;;;13.10;99.90;;;;;;4902123;29;20044;-83
2022/04/21 08:40:55;;;;;;;3.33;1.77;;;13.20;99.90;;;;;;4900001;29;20070;-81
2022/04/21 08:43:22;;;;;;;6.70;2.10;;;13.30;99.90;;;;;;4877638;29;20044;-82
2022/04/21 08:45:49;;;;;;;11.93;2.60;;;13.30;99.90;;;;;;4875614;29;20044;-82
2022/04/21 08:48:18;;;;;;;9.07;2.38;;;13.40;99.90;;;;;;4877715;29;20040;-82
2022/04/21 08:50:56;;;;;;;6.65;2.47;;;14.10;99.90;;;;;;4918601;29;20044;-82
2022/04/21 08:53:24;;;;;;;4.75;2.25;;;13.50;99.90;;;;;;4878733;29;20594;-83
2022/04/21 08:55:57;;;;;;;5.10;1.92;;;13.50;99.90;;;;;;4880762;29;20051;-82
2022/04/21 08:58:23;;;;;;;37.15;25.40;;;13.50;99.90;;;;;;4903968;29;20044;-82
2022/04/21 09:00:51;;;;;;;15.90;8.93;;;13.60;99.90;;;;;;4900216;29;20123;-82
2022/04/21 09:03:17;;;;;;;14.55;7.72;;;14.30;99.90;;;;;;4897150;29;20040;-81
2022/04/21 09:05:44;;;;;;;22.13;9.25;;;13.80;99.90;;;;;;4894871;29;20076;-82
2022/04/21 09:08:23;;;;;;;9.85;4.18;;;13.80;99.90;;;;;;4890278;29;20056;-81
2022/04/21 09:11:08;;;;;;;11.45;4.57;;;14.20;99.90;;;;;;4874698;29;20410;-79
2022/04/21 09:13:36;;;;;;;8.45;4.10;;;14.00;99.90;;;;;;4875520;29;20195;-82
2022/04/21 09:16:05;;;;;;;8.85;5.25;;;14.10;99.90;;;;;;4893072;29;20139;-81
2022/04/21 09:18:43;;;;;;;5.38;3.17;;;13.90;99.90;;;;;;4879843;29;20131;-82
2022/04/21 09:21:11;;;;;;;10.05;2.42;;;14.00;99.90;;;;;;4878378;29;20493;-81
2022/04/21 09:23:36;;;;;;;5.57;2.97;;;14.10;99.90;;;;;;4896610;29;20063;-81
2022/04/21 09:26:09;;;;;;;6.50;3.53;;;14.10;99.90;;;;;;4879406;29;20037;-82
2022/04/21 09:28:35;;;;;;;;;;;14.30;99.90;;;;;;4879025;29;20104;-81
2022/04/21 09:31:01;;;;;;;10.48;5.38;;;14.30;99.90;;;;;;4894090;29;20006;-81
2022/04/21 09:33:31;;;;;;;5.70;3.10;;;14.40;99.90;;;;;;4879316;29;20056;-82
2022/04/21 09:35:58;;;;;;;7.82;2.95;;;14.50;99.90;;;;;;4894067;29;20108;-81
2022/04/21 09:38:24;;;;;;;13.73;4.05;;;14.60;99.90;;;;;;4894728;29;20056;-82
2022/04/21 09:40:50;;;;;;;9.95;3.53;;;14.70;99.90;;;;;;4894267;29;20055;-83
2022/04/21 09:43:27;;;;;;;6.07;2.92;;;14.80;99.90;;;;;;4878880;29;20063;-83
2022/04/21 09:46:13;;;;;;;6.68;3.33;;;14.80;99.90;;;;;;4881958;29;20048;-83
2022/04/21 09:48:39;;;;;;;11.95;4.10;;;15.00;99.90;;;;;;4860978;29;20061;-83
2022/04/21 09:51:14;;;;;;;8.25;3.40;;;15.10;99.90;;;;;;4873344;29;20052;-83
2022/04/21 09:53:47;;;;;;;7.00;3.45;;;15.10;99.90;;;;;;4876053;29;20037;-82
2022/04/21 09:56:13;;;;;;;10.15;3.22;;;15.20;99.90;;;;;;4875443;29;20047;-82
2022/04/21 09:58:39;;;;;;;12.27;3.45;;;15.20;99.90;;;;;;4875766;29;20045;-83
2022/04/21 10:01:05;;;;;;;8.77;3.30;;;15.30;99.90;;;;;;4858980;29;20482;-82
2022/04/21 10:03:33;;;;;;;8.77;5.18;;;15.40;99.90;;;;;;4876333;29;20935;-83
2022/04/21 10:05:59;;;;;;;5.63;2.90;;;16.00;99.90;;;;;;4862304;29;20048;-83
2022/04/21 10:08:25;;;;;;;8.98;3.40;;;15.50;99.90;;;;;;4863544;29;20057;-82
2022/04/21 10:10:53;;;;;;;6.75;3.10;;;15.60;99.90;;;;;;4877205;29;20040;-83
2022/04/21 10:13:19;;;;;;;8.50;2.65;;;15.70;99.90;;;;;;4879154;29;20244;-83
2022/04/21 10:15:45;;;;;;;6.70;2.58;;;15.70;99.90;;;;;;4877607;29;20481;-83
2022/04/21 10:18:15;;;;;;;7.35;3.22;;;15.80;99.90;;;;;;4862652;29;20180;-82
2022/04/21 10:20:41;;;;;;;5.82;2.33;;;15.80;99.90;;;;;;4863138;29;20044;-83
2022/04/21 10:23:11;;;;;;;11.25;2.50;;;15.80;99.90;;;;;;4862500;29;20514;-82
2022/04/21 10:25:39;;;;;;;14.48;2.03;;;15.90;99.90;;;;;;4862455;29;20083;-83
2022/04/21 10:28:34;;;;;;;8.10;2.20;;;16.10;99.90;;;;;;4862783;29;20059;-82
2022/04/21 10:31:29;;;;;;;9.85;2.28;;;16.20;99.90;;;;;;4861811;29;20822;-82
2022/04/21 10:34:03;;;;;;;4.68;2.00;;;16.20;99.90;;;;;;4861981;29;20084;-82
2022/04/21 10:36:36;;;;;;;8.00;2.13;;;16.20;99.90;;;;;;4862791;29;20048;-83
2022/04/21 10:39:20;;;;;;;8.00;1.75;;;16.20;99.90;;;;;;4861623;29;20052;-83
2022/04/21 10:41:46;;;;;;;11.02;2.35;;;16.20;99.90;;;;;;4862372;29;20124;-83
2022/04/21 10:44:13;;;;;;;6.30;2.00;;;16.30;99.90;;;;;;4866986;29;20466;-77
2022/04/21 10:46:39;;;;;;;8.85;2.33;;;16.20;99.90;;;;;;4908284;29;20048;-78
2022/04/21 10:49:05;;;;;;;9.75;2.13;;;16.30;99.90;;;;;;4912462;29;20167;-79
2022/04/21 10:57:12;;;;;;;10.98;4.78;;;16.30;99.90;;;;;;4913652;29;20507;-78
2022/04/21 10:57:34;;;;;;;5.43;2.42;;;16.50;99.60;;;;;;4896332;29;20393;-78
2022/04/21 11:00:00;;;;;;;9.65;5.18;;;16.50;98.40;;;;;;4884415;29;20044;-78
2022/04/21 11:02:41;;;;;;;16.83;9.77;;;16.50;98.40;;;;;;4912203;29;20958;-78
2022/04/21 11:05:22;;;;;;;6.65;3.22;;;16.60;96.60;;;;;;4913114;29;20060;-78
2022/04/21 11:07:53;;;;;;;10.02;4.38;;;16.60;93.50;;;;;;4888880;29;20051;-79
2022/04/21 11:10:43;;;;;;;7.53;2.50;;;16.70;95.10;;;;;;4899945;29;20048;-78
2022/04/21 11:13:17;;;;;;;8.07;3.40;;;16.80;96.30;;;;;;4900503;29;20091;-79
2022/04/21 11:15:49;;;;;;;13.00;7.95;;;16.90;96.50;;;;;;4912124;29;20040;-79
2022/04/21 11:18:29;;;;;;;7.95;2.67;;;16.90;96.50;;;;;;4913633;29;20485;-79
2022/04/21 11:21:22;;;;;;;5.68;2.33;;;17.00;96.80;;;;;;4908577;29;20548;-78
2022/04/21 11:23:48;;;;;;;8.60;2.50;;;17.10;96.00;;;;;;4891460;29;20097;-79
2022/04/21 11:26:13;;;;;;;8.32;2.20;;;17.30;96.60;;;;;;4910696;29;20092;-79
2022/04/21 11:28:43;;;;;;;8.60;2.83;;;17.30;96.10;;;;;;4898576;29;20056;-79
2022/04/21 11:31:09;;;;;;;8.90;3.40;;;17.30;94.60;;;;;;4903768;29;20175;-79
2022/04/21 11:33:36;;;;;;;10.25;2.40;;;17.30;95.10;;;;;;4910581;29;20040;-79
2022/04/21 11:36:04;;;;;;;8.02;3.08;;;17.20;94.80;;;;;;4892633;29;20060;-78
2022/04/21 11:38:32;;;;;;;7.82;2.65;;;17.10;95.00;;;;;;4912467;29;20099;-79
2022/04/21 11:41:02;;;;;;;4.82;2.45;;;17.10;94.60;;;;;;4911499;29;20103;-78
2022/04/21 11:43:28;;;;;;;7.15;2.25;;;17.20;97.60;;;;;;4912091;29;20044;-78
2022/04/21 11:45:59;;;;;;;8.43;2.72;;;17.30;97.30;;;;;;4892270;29;20084;-78
2022/04/21 11:48:37;;;;;;;19.73;2.63;;;17.40;93.90;;;;;;4904585;29;20048;-78
2022/04/21 11:51:03;;;;;;;8.30;2.33;;;17.40;91.50;;;;;;4911513;29;20547;-79
2022/04/21 11:53:34;;;;;;;5.05;2.25;;;17.50;92.70;;;;;;4903954;29;20067;-78
2022/04/21 11:56:00;;;;;;;8.45;2.45;;;17.50;92.10;;;;;;4911609;29;20056;-79
2022/04/21 11:58:34;;;;;;;5.07;2.40;;;17.30;91.90;;;;;;4912112;29;20437;-79
2022/04/21 12:06:37;;;;;;;8.18;2.42;;;17.40;92.20;;;;;;4894976;29;20052;-79
2022/04/21 12:09:03;;;;;;;9.45;2.67;;;17.50;93.10;;;;;;4911934;29;20051;-78
2022/04/21 12:11:30;;;;;;;7.60;2.30;;;17.40;92.30;;;;;;4882725;29;20056;-79
2022/04/21 12:13:56;;;;;;;5.32;2.58;;;17.50;92.80;;;;;;4903978;29;20060;-79
2022/04/21 12:16:50;;;;;;;8.68;2.92;;;17.50;92.80;;;;;;4895511;29;20044;-78
2022/04/21 12:19:37;;;;;;;8.25;2.70;;;17.60;91.30;;;;;;4906443;29;20056;-78
2022/04/21 12:22:06;;;;;;;5.85;2.88;;;17.60;92.30;;;;;;4910582;29;20052;-78
2022/04/21 12:24:37;;;;;;;14.18;2.97;;;17.60;92.40;;;;;;4909761;29;20396;-78
2022/04/21 12:27:10;;;;;;;5.88;2.45;;;17.60;92.40;;;;;;4904846;29;20052;-79
2022/04/21 12:29:56;;;;;;;5.25;2.80;;;17.70;92.20;;;;;;4900291;29;20072;-79
2022/04/21 12:32:24;;;;;;;6.20;2.40;;;17.70;93.50;;;;;;4881644;29;20055;-79
2022/04/21 12:34:50;;;;;;;9.82;3.00;;;17.60;91.80;;;;;;4911919;29;20062;-79
2022/04/21 12:37:24;;;;;;;7.95;2.53;;;17.60;91.60;;;;;;4911829;29;20567;-79
2022/04/21 12:39:50;;;;;;;8.88;2.85;;;17.60;92.10;;;;;;4900214;29;20048;-78
2022/04/21 12:42:16;;;;;;;14.50;2.85;;;17.50;91.70;;;;;;4901144;29;20063;-79
2022/04/21 12:44:43;;;;;;;7.80;2.53;;;17.60;92.10;;;;;;4911567;29;20503;-79
2022/04/21 12:47:21;;;;;;;8.30;2.60;;;17.50;91.10;;;;;;4909114;29;20052;-78
2022/04/21 12:49:49;;;;;;;16.15;5.40;;;17.70;91.10;;;;;;4910016;29;20056;-78
2022/04/21 12:52:14;;;;;;;16.15;6.53;;;17.70;91.90;;;;;;4902188;29;20052;-78
2022/04/21 12:54:46;;;;;;;9.05;5.25;;;17.70;91.20;;;;;;4899499;29;20063;-78
2022/04/21 12:57:14;;;;;;;10.18;4.45;;;17.70;90.20;;;;;;4902895;29;20067;-77
2022/04/21 12:59:40;;;;;;;8.00;2.50;;;17.60;89.40;;;;;;4903781;29;20488;-77
2022/04/21 13:02:06;;;;;;;9.63;3.80;;;17.70;89.70;;;;;;4895524;29;20059;-77
2022/04/21 13:04:32;;;;;;;10.05;3.13;;;17.50;89.20;;;;;;4930100;29;20067;-77
2022/04/21 13:06:58;;;;;;;10.82;2.80;;;17.60;90.00;;;;;;4900925;29;20091;-77
2022/04/21 13:09:23;;;;;;;6.97;2.55;;;17.60;89.90;;;;;;4921047;29;20052;-77
2022/04/21 13:11:49;;;;;;;8.23;2.50;;;17.60;90.50;;;;;;4911177;29;20484;-77
2022/04/21 13:14:18;;;;;;;10.75;2.92;;;17.70;90.40;;;;;;4889411;29;20048;-76
2022/04/21 13:16:44;;;;;;;5.90;2.70;;;17.70;90.20;;;;;;4926471;29;20052;-77
2022/04/21 13:19:12;;;;;;;4.88;2.45;;;17.70;90.30;;;;;;4901389;29;20131;-77
2022/04/21 13:21:55;;;;;;;4.80;2.50;;;17.70;89.40;;;;;;4921012;29;20131;-77
2022/04/21 13:24:25;;;;;;;9.23;2.90;;;17.60;88.50;;;;;;4908412;29;20056;-77
2022/04/21 13:27:02;;;;;;;4.20;2.15;;;17.60;87.40;;;;;;4907105;29;20056;-77
2022/04/21 13:29:27;;;;;;;7.78;2.15;;;17.50;85.70;;;;;;4904268;29;20062;-78
2022/04/21 13:34:37;;;;;;;5.25;2.80;;;17.50;85.20;;;;;;4901821;29;20092;-78